Startpagina
METAR-TAF:

METAR-TAF

Vliegvelden :

Banská Bystrica, Slowakije

breedte: 48-38-17N, lengte: 019-08-03E, hoogte: 318 m

Actueel weer

Dit bericht is 26 minuten geleden gemaakt, om 10:30 UTC
Wind 3 kt uit het noordnoordoosten, variërend tussen het noorden en het oostnoordoosten
Temperatuur 13°C
Vochtigheid 41%
Druk 1028 hPa
Zicht 10 km of meer
Weinig wolken op 4700 ft

METAR: LZSL 141030Z 02003KT 350V070 9999 FEW047 13/00 Q1028

Tijdstip: 11:56 (10:56 UTC)

Verwachting

Dit bericht is 2 uur en het 56 minuten geleden gemaakt, om 08:00 UTC
Verwachting geldig van 14 om 09 UTC tot 14 om 18 UTC
Wind 5 kt uit het noorden
Zicht 10 km of meer
Weinig wolken op 4500 ft
Tijdelijke
van 14 om 10 UTC tot 14 om 16 UTC
Wind 12 kt uit het noorden
Wijzigt naar
van 14 om 16 UTC tot 14 om 18 UTC
Zicht 10 km of meer
geen wolken onder 1500 m en geen cumulonimbus

TAF: LZSL 140800Z 1409/1418 35005KT 9999 FEW045 TEMPO 1410/1416 35012KT BECMG 1416/1418 CAVOK

Waarnemingen en weersverwachtingen van meer dan 4000 vliegvelden (METAR en TAF).

De beschikbare stations zijn de gele en rode punten op de kaart.

Ga met uw muis naar het station om de naam te zien.

Klik dan om waarnemingen en weersverwachtingen te zien.

kaart wijzigen: klik op de groene knoppen met een zwart kruis om in te zoomen, op de groene knop met een streepje om uit te zoomen of op de groene pijlen voor aangrenzende kaarten.


METAR-TAF: